Time;durP1;ratioP1;P1;durP2;ratioP2;P2;SDS_P1;SDS_P2;PMS_P1;PMS_P2;Temp;Humidity;BMP_temperature;BMP_pressure;BME280_temperature;BME280_humidity;BME280_pressure;Samples;Min_cycle;Max_cycle;Signal;HPM_P1;HPM_P2
2023/12/14 00:00:27;;;;;;;24.40;12.70;;;3.80;99.90;;;;;;5059277;28;20171;-63
2023/12/14 00:02:52;;;;;;;21.07;12.43;;;3.80;99.90;;;;;;5065880;28;20191;-63
2023/12/14 00:05:18;;;;;;;22.87;14.00;;;3.80;99.90;;;;;;5058624;28;20726;-63
2023/12/14 00:07:43;;;;;;;28.07;14.63;;;3.80;99.90;;;;;;5066004;28;20186;-63
2023/12/14 00:10:09;;;;;;;22.33;13.60;;;3.80;99.90;;;;;;5065715;28;20207;-63
2023/12/14 00:12:34;;;;;;;21.90;12.37;;;3.80;99.90;;;;;;5058546;28;20293;-63
2023/12/14 00:15:00;;;;;;;19.00;13.30;;;3.80;99.90;;;;;;5060042;28;20188;-63
2023/12/14 00:17:25;;;;;;;20.20;10.90;;;3.80;99.90;;;;;;5064581;28;20195;-63
2023/12/14 00:19:51;;;;;;;19.10;11.57;;;3.70;99.90;;;;;;5061868;28;20203;-62
2023/12/14 00:22:17;;;;;;;15.30;11.27;;;3.70;99.90;;;;;;5058103;28;20675;-61
2023/12/14 00:24:42;;;;;;;20.90;13.17;;;3.70;99.90;;;;;;5055865;28;20198;-62
2023/12/14 00:27:08;;;;;;;20.37;12.87;;;3.70;99.90;;;;;;5055289;28;20244;-62
2023/12/14 00:29:33;;;;;;;21.20;12.50;;;3.70;99.90;;;;;;5067738;28;20368;-62
2023/12/14 00:31:59;;;;;;;28.80;13.23;;;3.70;99.90;;;;;;5054813;28;20650;-62
2023/12/14 00:34:25;;;;;;;22.97;13.20;;;3.70;99.90;;;;;;5052922;28;20297;-63
2023/12/14 00:36:50;;;;;;;21.23;12.17;;;3.70;99.90;;;;;;5046408;28;20216;-63
2023/12/14 00:39:16;;;;;;;25.20;13.57;;;3.70;99.90;;;;;;5066033;28;20288;-63
2023/12/14 00:41:41;;;;;;;18.77;11.70;;;3.70;99.90;;;;;;5055288;28;20202;-63
2023/12/14 00:44:07;;;;;;;18.83;11.50;;;3.80;99.90;;;;;;5068910;28;20179;-63
2023/12/14 00:46:32;;;;;;;23.60;14.43;;;3.70;99.90;;;;;;5068045;28;20178;-63
2023/12/14 00:48:58;;;;;;;21.30;12.80;;;3.70;99.90;;;;;;5063508;28;20193;-63
2023/12/14 00:51:24;;;;;;;22.33;13.03;;;3.70;99.90;;;;;;5068501;28;20202;-63
2023/12/14 00:53:49;;;;;;;17.53;9.80;;;3.70;99.90;;;;;;5057888;28;20197;-62
2023/12/14 00:56:15;;;;;;;17.40;11.43;;;3.70;99.90;;;;;;5069013;28;20672;-63
2023/12/14 00:58:40;;;;;;;18.20;11.07;;;3.60;99.90;;;;;;5066879;28;20580;-63
2023/12/14 01:01:06;;;;;;;28.73;12.83;;;3.50;99.90;;;;;;5052939;28;20195;-62
2023/12/14 01:03:32;;;;;;;19.77;12.60;;;3.50;99.90;;;;;;5063076;28;20170;-63
2023/12/14 01:05:57;;;;;;;19.73;11.47;;;3.50;99.90;;;;;;5050889;28;20171;-63
2023/12/14 01:08:23;;;;;;;21.60;12.43;;;3.50;99.90;;;;;;5066074;28;20564;-61
2023/12/14 01:10:48;;;;;;;26.30;12.27;;;3.60;99.90;;;;;;5065100;28;20190;-63
2023/12/14 01:13:14;;;;;;;17.90;12.03;;;3.50;99.90;;;;;;5062042;28;20233;-62
2023/12/14 01:15:40;;;;;;;24.63;12.20;;;3.50;99.90;;;;;;5061406;28;20189;-62
2023/12/14 01:18:05;;;;;;;16.50;10.67;;;3.30;99.90;;;;;;5066065;28;20207;-63
2023/12/14 01:20:31;;;;;;;19.90;10.33;;;3.40;99.90;;;;;;5062012;28;20167;-62
2023/12/14 01:22:56;;;;;;;17.57;11.80;;;3.30;99.90;;;;;;5065163;28;20285;-61
2023/12/14 01:25:22;;;;;;;16.20;9.90;;;3.30;99.90;;;;;;5053363;28;20643;-62
2023/12/14 01:27:47;;;;;;;16.97;9.20;;;3.30;99.90;;;;;;5048684;28;20696;-63
2023/12/14 01:30:13;;;;;;;13.17;8.97;;;3.30;99.90;;;;;;5057503;28;20647;-62
2023/12/14 01:32:39;;;;;;;20.43;10.37;;;3.30;99.90;;;;;;5044392;28;20199;-63
2023/12/14 01:35:04;;;;;;;18.23;8.87;;;3.30;99.90;;;;;;5053618;28;20621;-64
2023/12/14 01:37:30;;;;;;;14.40;10.00;;;3.30;99.90;;;;;;5057592;28;20170;-63
2023/12/14 01:39:56;;;;;;;13.40;8.67;;;3.30;99.90;;;;;;5067807;28;20699;-63
2023/12/14 01:42:21;;;;;;;14.53;9.27;;;3.30;99.90;;;;;;5064758;28;20194;-63
2023/12/14 01:44:47;;;;;;;17.17;10.90;;;3.20;99.90;;;;;;5065713;28;20185;-63
2023/12/14 01:47:12;;;;;;;17.97;11.20;;;3.20;99.90;;;;;;5061863;28;20181;-64
2023/12/14 01:49:38;;;;;;;13.67;8.87;;;3.20;99.90;;;;;;5044313;28;20175;-63
2023/12/14 01:52:05;;;;;;;12.13;8.17;;;3.10;99.90;;;;;;5052928;28;20293;-63
2023/12/14 01:54:30;;;;;;;12.30;8.47;;;3.10;99.90;;;;;;5064116;28;20760;-63
2023/12/14 01:56:56;;;;;;;14.43;8.80;;;3.10;99.90;;;;;;5059520;28;20421;-63
2023/12/14 01:59:22;;;;;;;13.50;7.80;;;3.10;99.90;;;;;;5050619;28;20645;-63
2023/12/14 02:01:53;;;;;;;13.87;8.37;;;3.10;99.90;;;;;;5052960;28;20194;-63
2023/12/14 02:04:19;;;;;;;12.67;8.10;;;3.10;99.90;;;;;;5061783;28;20175;-63
2023/12/14 02:06:44;;;;;;;14.17;9.00;;;3.00;99.90;;;;;;5059897;28;20424;-63
2023/12/14 02:09:10;;;;;;;14.50;9.17;;;3.10;99.90;;;;;;5055669;28;20255;-61
2023/12/14 02:11:36;;;;;;;17.80;10.10;;;3.00;99.90;;;;;;5056627;28;20202;-63
2023/12/14 02:14:11;;;;;;;15.93;9.63;;;3.10;99.90;;;;;;5058286;28;20201;-63
2023/12/14 02:16:40;;;;;;;16.07;9.20;;;3.10;99.90;;;;;;5064246;28;20511;-63
2023/12/14 02:19:06;;;;;;;12.80;9.20;;;3.10;99.90;;;;;;5051227;28;21012;-64
2023/12/14 02:21:31;;;;;;;17.03;9.77;;;3.00;99.90;;;;;;5057443;28;20511;-62
2023/12/14 02:23:57;;;;;;;16.30;10.70;;;3.00;99.90;;;;;;5052507;28;20253;-62
2023/12/14 02:26:23;;;;;;;18.47;10.63;;;3.00;99.90;;;;;;5053715;28;20174;-63
2023/12/14 02:28:48;;;;;;;15.30;9.87;;;3.00;99.90;;;;;;5060483;28;20185;-61
2023/12/14 02:31:14;;;;;;;21.33;11.53;;;3.00;99.90;;;;;;5041542;28;20290;-62
2023/12/14 02:33:40;;;;;;;14.00;10.50;;;3.00;99.90;;;;;;5063595;28;20178;-63
2023/12/14 02:36:06;;;;;;;17.47;11.27;;;3.00;99.90;;;;;;5059099;28;20546;-62
2023/12/14 02:38:31;;;;;;;15.83;9.27;;;3.00;99.90;;;;;;5052889;28;20255;-62
2023/12/14 02:40:57;;;;;;;18.10;11.33;;;3.00;99.90;;;;;;5054266;28;20420;-63
2023/12/14 02:43:23;;;;;;;16.13;10.40;;;3.00;99.90;;;;;;5064841;28;20166;-63
2023/12/14 02:45:49;;;;;;;18.47;10.37;;;3.00;99.90;;;;;;5047802;28;20694;-62
2023/12/14 02:48:15;;;;;;;16.73;10.67;;;2.90;99.90;;;;;;5055448;28;20419;-61
2023/12/14 02:50:40;;;;;;;17.97;10.60;;;2.90;99.90;;;;;;5063284;28;20174;-63
2023/12/14 02:53:06;;;;;;;24.17;13.23;;;3.00;99.90;;;;;;5064357;28;20198;-63
2023/12/14 02:55:31;;;;;;;19.80;11.20;;;3.00;99.90;;;;;;5064764;28;20609;-63
2023/12/14 02:57:57;;;;;;;19.33;11.33;;;3.00;99.90;;;;;;5064487;28;20568;-63
2023/12/14 03:00:23;;;;;;;15.07;9.87;;;3.00;99.90;;;;;;5051056;28;20205;-63
2023/12/14 03:02:48;;;;;;;18.37;11.50;;;3.00;99.90;;;;;;5050777;28;20190;-62
2023/12/14 03:05:14;;;;;;;16.23;10.87;;;3.00;99.90;;;;;;5064039;28;20179;-64
2023/12/14 03:07:40;;;;;;;16.87;11.77;;;3.00;99.90;;;;;;5063163;28;20570;-63
2023/12/14 03:10:07;;;;;;;20.80;11.70;;;3.00;99.90;;;;;;5057219;28;20175;-63
2023/12/14 03:12:32;;;;;;;16.50;11.00;;;3.00;99.90;;;;;;5055061;28;20446;-62
2023/12/14 03:14:58;;;;;;;16.83;10.50;;;3.00;99.90;;;;;;5046636;28;20682;-63
2023/12/14 03:17:24;;;;;;;18.97;10.90;;;3.00;99.90;;;;;;5053041;28;20178;-63
2023/12/14 03:19:49;;;;;;;16.73;11.63;;;3.00;99.90;;;;;;5062966;28;20275;-61
2023/12/14 03:22:15;;;;;;;27.03;11.60;;;3.00;99.90;;;;;;5054263;28;20215;-64
2023/12/14 03:24:42;;;;;;;13.93;9.87;;;3.10;99.90;;;;;;5058878;28;20183;-63
2023/12/14 03:27:07;;;;;;;13.93;9.23;;;3.00;99.90;;;;;;5050748;28;20175;-64
2023/12/14 03:29:33;;;;;;;16.03;9.57;;;3.00;99.90;;;;;;5059802;28;20461;-64
2023/12/14 03:31:59;;;;;;;18.00;12.17;;;3.00;99.90;;;;;;5046001;28;20233;-64
2023/12/14 03:34:24;;;;;;;20.40;10.23;;;2.90;99.90;;;;;;5052559;28;20224;-62
2023/12/14 03:36:50;;;;;;;17.00;10.87;;;3.00;99.90;;;;;;5062928;28;20322;-63
2023/12/14 03:39:16;;;;;;;18.43;10.00;;;3.00;99.90;;;;;;5046417;28;20294;-63
2023/12/14 03:41:42;;;;;;;17.20;10.97;;;3.00;99.90;;;;;;5052045;28;20524;-63
2023/12/14 03:44:08;;;;;;;18.13;9.27;;;3.00;99.90;;;;;;5055665;28;20521;-63
2023/12/14 03:46:34;;;;;;;16.37;10.90;;;3.10;99.90;;;;;;5060517;28;20434;-64
2023/12/14 03:49:00;;;;;;;13.70;10.93;;;3.10;99.90;;;;;;5049660;28;20236;-64
2023/12/14 03:51:26;;;;;;;11.00;7.70;;;3.10;99.90;;;;;;5050594;28;20441;-63
2023/12/14 03:53:51;;;;;;;15.13;8.90;;;3.00;99.90;;;;;;5052507;28;20591;-62
2023/12/14 03:56:17;;;;;;;17.07;8.90;;;3.00;99.90;;;;;;5061987;28;20513;-63
2023/12/14 03:58:43;;;;;;;12.63;8.60;;;3.00;99.90;;;;;;5058625;28;20200;-63
2023/12/14 04:01:14;;;;;;;13.67;7.57;;;3.00;99.90;;;;;;5068849;28;20190;-63
2023/12/14 04:03:40;;;;;;;13.23;7.60;;;3.00;99.90;;;;;;5058458;28;20637;-63
2023/12/14 04:06:06;;;;;;;13.57;8.37;;;3.00;99.90;;;;;;5056675;28;20423;-62
2023/12/14 04:08:31;;;;;;;11.70;8.97;;;3.00;99.90;;;;;;5055931;28;20178;-63
2023/12/14 04:10:57;;;;;;;10.10;7.90;;;2.90;99.90;;;;;;5068902;28;20178;-61
2023/12/14 04:13:22;;;;;;;13.10;7.97;;;3.00;99.90;;;;;;5051442;28;20682;-63
2023/12/14 04:15:48;;;;;;;12.60;8.30;;;2.90;99.90;;;;;;5070516;28;20186;-63
2023/12/14 04:18:13;;;;;;;13.80;9.37;;;3.00;99.90;;;;;;5067286;28;20261;-63
2023/12/14 04:20:39;;;;;;;11.87;7.87;;;3.00;99.90;;;;;;5058103;28;20186;-62
2023/12/14 04:23:04;;;;;;;11.90;7.47;;;3.00;99.90;;;;;;5060562;28;20197;-63
2023/12/14 04:25:30;;;;;;;9.97;7.30;;;3.00;99.90;;;;;;5053041;28;20254;-63
2023/12/14 04:27:56;;;;;;;16.07;8.57;;;3.00;99.90;;;;;;5060886;28;20182;-62
2023/12/14 04:30:22;;;;;;;14.00;7.80;;;3.00;99.90;;;;;;5066038;28;20598;-62
2023/12/14 04:32:47;;;;;;;12.93;9.63;;;3.00;99.90;;;;;;5064185;28;20203;-64
2023/12/14 04:35:13;;;;;;;15.43;9.80;;;3.00;99.90;;;;;;5052428;28;20244;-63
2023/12/14 04:37:38;;;;;;;12.50;9.53;;;3.00;99.90;;;;;;5065325;28;20201;-62
2023/12/14 04:40:05;;;;;;;19.93;9.17;;;3.00;99.90;;;;;;5061737;28;20206;-63
2023/12/14 04:42:30;;;;;;;17.63;8.97;;;3.00;99.90;;;;;;5049563;28;20281;-64
2023/12/14 04:44:56;;;;;;;14.83;9.13;;;3.10;99.90;;;;;;5065889;28;20550;-62
2023/12/14 04:47:21;;;;;;;12.77;9.37;;;3.10;99.90;;;;;;5058944;28;20179;-63
2023/12/14 04:49:47;;;;;;;19.40;10.20;;;3.10;99.90;;;;;;5043810;28;20709;-63
2023/12/14 04:52:13;;;;;;;13.70;9.03;;;3.10;99.90;;;;;;5062460;28;20441;-62
2023/12/14 04:54:40;;;;;;;17.23;10.20;;;3.10;99.90;;;;;;5062967;28;20275;-60
2023/12/14 04:57:05;;;;;;;16.30;10.10;;;3.10;99.90;;;;;;5068007;28;20700;-62
2023/12/14 04:59:31;;;;;;;13.87;9.80;;;3.10;99.90;;;;;;5049538;28;20534;-63
2023/12/14 05:01:56;;;;;;;13.67;8.43;;;3.10;99.90;;;;;;5068435;28;20227;-62
2023/12/14 05:04:22;;;;;;;15.17;9.27;;;3.10;99.90;;;;;;5055640;28;20262;-63
2023/12/14 05:06:48;;;;;;;13.30;8.90;;;3.20;99.90;;;;;;5064734;28;20167;-63
2023/12/14 05:09:13;;;;;;;14.10;9.70;;;3.20;99.90;;;;;;5051014;28;20190;-63
2023/12/14 05:11:42;;;;;;;14.80;9.00;;;3.20;99.90;;;;;;5062691;28;20194;-62
2023/12/14 05:14:08;;;;;;;14.00;9.20;;;3.20;99.90;;;;;;5052187;28;20175;-62
2023/12/14 05:16:34;;;;;;;13.30;10.13;;;3.10;99.90;;;;;;5057169;28;20420;-61
2023/12/14 05:18:59;;;;;;;15.13;9.23;;;3.20;99.90;;;;;;5058963;28;20202;-62
2023/12/14 05:21:25;;;;;;;13.63;10.13;;;3.20;99.90;;;;;;5058967;28;20202;-57
2023/12/14 05:23:50;;;;;;;22.20;11.10;;;3.20;99.90;;;;;;5046726;28;20246;-61
2023/12/14 05:26:16;;;;;;;11.60;9.50;;;3.20;99.90;;;;;;5059308;28;20270;-63
2023/12/14 05:28:42;;;;;;;14.60;9.77;;;3.20;99.90;;;;;;5062004;28;20183;-61
2023/12/14 05:31:08;;;;;;;14.50;9.97;;;3.20;99.90;;;;;;5055841;28;20213;-63
2023/12/14 05:33:37;;;;;;;16.47;11.07;;;3.20;99.90;;;;;;5053841;28;20420;-60
2023/12/14 05:36:05;;;;;;;18.43;10.07;;;3.20;99.90;;;;;;5059578;28;20181;-60
2023/12/14 05:38:31;;;;;;;17.33;11.03;;;3.20;99.90;;;;;;5068912;28;20547;-62
2023/12/14 05:40:57;;;;;;;12.03;9.33;;;3.20;99.90;;;;;;5046946;28;20416;-62
2023/12/14 05:43:22;;;;;;;12.37;9.57;;;3.20;99.90;;;;;;5067774;28;20424;-62
2023/12/14 05:45:48;;;;;;;15.13;8.10;;;3.20;99.90;;;;;;5061386;28;20174;-64
2023/12/14 05:48:14;;;;;;;13.93;9.67;;;3.20;99.90;;;;;;5056421;28;20190;-63
2023/12/14 05:50:40;;;;;;;17.73;10.50;;;3.20;99.90;;;;;;5053863;28;20266;-61
2023/12/14 05:53:05;;;;;;;14.37;9.63;;;3.20;99.90;;;;;;5058741;28;20508;-61
2023/12/14 05:55:31;;;;;;;13.00;9.87;;;3.20;99.90;;;;;;5069041;28;20253;-62
2023/12/14 05:57:57;;;;;;;13.40;9.70;;;3.20;99.90;;;;;;5052412;28;20618;-61
2023/12/14 06:00:24;;;;;;;12.83;9.37;;;3.20;99.90;;;;;;5064445;28;20634;-62
2023/12/14 06:02:49;;;;;;;13.60;9.00;;;3.20;99.90;;;;;;5059389;28;20426;-62
2023/12/14 06:05:15;;;;;;;11.77;9.13;;;3.10;99.90;;;;;;5057580;28;20494;-60
2023/12/14 06:07:40;;;;;;;14.17;9.33;;;3.20;99.90;;;;;;5052245;28;20261;-61
2023/12/14 06:10:10;;;;;;;14.07;9.40;;;3.30;99.90;;;;;;5063376;28;20178;-62
2023/12/14 06:12:35;;;;;;;13.70;9.47;;;3.20;99.90;;;;;;5052162;28;20194;-64
2023/12/14 06:15:01;;;;;;;14.30;9.63;;;3.20;99.90;;;;;;5062079;28;20424;-62
2023/12/14 06:17:27;;;;;;;12.00;8.70;;;3.20;99.90;;;;;;5061255;28;20295;-62
2023/12/14 06:19:52;;;;;;;14.10;10.10;;;3.30;99.90;;;;;;5065043;28;20587;-60
2023/12/14 06:22:18;;;;;;;12.63;10.17;;;3.30;99.90;;;;;;5056663;28;20192;-65
2023/12/14 06:24:43;;;;;;;12.20;9.93;;;3.20;99.90;;;;;;5055407;28;20183;-62
2023/12/14 06:27:09;;;;;;;14.47;9.53;;;3.20;99.90;;;;;;5062397;28;20305;-63
2023/12/14 06:29:34;;;;;;;12.40;8.67;;;3.20;99.90;;;;;;5060311;28;20187;-64
2023/12/14 06:32:00;;;;;;;15.43;10.03;;;3.30;99.90;;;;;;5052208;28;20225;-64
2023/12/14 06:34:26;;;;;;;15.47;9.90;;;3.20;99.90;;;;;;5050642;28;20174;-62
2023/12/14 06:36:51;;;;;;;11.70;9.43;;;3.20;99.90;;;;;;5057232;28;20179;-63
2023/12/14 06:39:17;;;;;;;11.63;8.77;;;3.20;99.90;;;;;;5045503;28;20287;-62
2023/12/14 06:41:42;;;;;;;13.57;9.70;;;3.20;99.90;;;;;;5050826;28;20217;-63
2023/12/14 06:44:09;;;;;;;14.63;9.53;;;3.30;99.90;;;;;;5050852;28;20167;-63
2023/12/14 06:46:35;;;;;;;11.57;8.73;;;3.30;99.90;;;;;;5062797;28;20213;-62
2023/12/14 06:49:01;;;;;;;11.80;9.27;;;3.20;99.90;;;;;;5067466;28;20434;-62
2023/12/14 06:51:26;;;;;;;11.77;8.87;;;3.20;99.90;;;;;;5062221;28;20433;-64
2023/12/14 06:53:52;;;;;;;11.10;9.20;;;3.10;99.90;;;;;;5069324;28;20641;-63
2023/12/14 06:56:17;;;;;;;11.70;8.93;;;3.10;99.90;;;;;;5053410;28;20596;-64
2023/12/14 06:58:44;;;;;;;14.03;9.77;;;3.20;99.90;;;;;;5057629;28;20198;-64
2023/12/14 07:01:14;;;;;;;11.13;8.70;;;3.10;99.90;;;;;;5051177;28;20281;-63
2023/12/14 07:03:41;;;;;;;12.20;8.47;;;3.20;99.90;;;;;;5046925;28;20408;-65
2023/12/14 07:06:07;;;;;;;10.73;9.23;;;3.20;99.90;;;;;;5056932;28;20420;-61
2023/12/14 07:08:33;;;;;;;12.00;9.07;;;3.20;99.90;;;;;;5052864;28;20425;-63
2023/12/14 07:10:59;;;;;;;13.60;10.33;;;3.20;99.90;;;;;;5064335;28;20968;-62
2023/12/14 07:13:24;;;;;;;15.17;8.67;;;3.20;99.90;;;;;;5058065;28;20177;-63
2023/12/14 07:15:51;;;;;;;11.60;8.90;;;3.30;99.90;;;;;;5051142;28;20175;-63
2023/12/14 07:18:16;;;;;;;14.90;9.73;;;3.30;99.90;;;;;;5057928;28;20171;-62
2023/12/14 07:20:42;;;;;;;17.43;10.07;;;3.30;99.90;;;;;;5067688;28;20415;-64
2023/12/14 07:23:08;;;;;;;14.30;10.50;;;3.30;99.90;;;;;;5064835;28;20633;-63
2023/12/14 07:25:33;;;;;;;19.03;10.57;;;3.30;99.90;;;;;;5064879;28;20180;-62
2023/12/14 07:27:59;;;;;;;14.03;10.57;;;3.40;99.90;;;;;;5062890;28;20167;-60
2023/12/14 07:30:24;;;;;;;17.53;10.13;;;3.30;99.90;;;;;;5054758;28;20183;-62
2023/12/14 07:32:51;;;;;;;17.00;10.80;;;3.40;99.90;;;;;;5059251;28;20251;-62
2023/12/14 07:35:16;;;;;;;16.00;11.40;;;3.40;99.90;;;;;;5066942;28;20208;-63
2023/12/14 07:37:42;;;;;;;14.93;10.20;;;3.40;99.90;;;;;;5067659;28;21020;-61
2023/12/14 07:40:08;;;;;;;15.30;11.07;;;3.40;99.90;;;;;;5063718;28;20259;-62
2023/12/14 07:42:34;;;;;;;16.87;11.43;;;3.30;99.90;;;;;;5066322;28;20199;-61
2023/12/14 07:45:00;;;;;;;16.20;10.30;;;3.30;99.90;;;;;;5057550;28;20421;-63
2023/12/14 07:47:25;;;;;;;16.20;11.30;;;3.30;99.90;;;;;;5060907;28;20413;-62
2023/12/14 07:49:51;;;;;;;18.50;11.20;;;3.30;99.90;;;;;;5054830;28;20180;-62
2023/12/14 07:52:17;;;;;;;17.17;12.70;;;3.30;99.90;;;;;;5061836;28;20602;-63
2023/12/14 07:54:42;;;;;;;18.40;10.70;;;3.30;99.90;;;;;;5067059;28;20191;-62
2023/12/14 07:57:08;;;;;;;18.20;13.30;;;3.30;99.90;;;;;;5058031;28;20181;-63
2023/12/14 07:59:33;;;;;;;18.50;12.07;;;3.30;99.90;;;;;;5059069;28;20269;-62
2023/12/14 08:01:59;;;;;;;19.30;11.50;;;3.30;99.90;;;;;;5060595;28;20204;-64
2023/12/14 08:04:25;;;;;;;13.47;11.20;;;3.30;99.90;;;;;;5058944;28;20179;-64
2023/12/14 08:06:51;;;;;;;16.57;12.03;;;3.30;99.90;;;;;;5066242;28;20915;-61
2023/12/14 08:09:16;;;;;;;22.80;13.03;;;3.30;99.90;;;;;;5061478;28;20178;-63
2023/12/14 08:11:42;;;;;;;17.40;12.93;;;3.30;99.90;;;;;;5057021;28;20822;-62
2023/12/14 08:14:08;;;;;;;17.70;13.90;;;3.30;99.90;;;;;;5059655;28;20175;-62
2023/12/14 08:16:33;;;;;;;15.40;11.53;;;3.30;99.90;;;;;;5054176;28;20562;-63
2023/12/14 08:18:59;;;;;;;20.30;13.07;;;3.40;99.90;;;;;;5047878;28;20573;-63
2023/12/14 08:21:24;;;;;;;18.27;12.13;;;3.30;99.90;;;;;;5053697;28;20191;-64
2023/12/14 08:23:50;;;;;;;17.13;12.10;;;3.40;99.90;;;;;;5053552;28;20175;-64
2023/12/14 08:26:16;;;;;;;22.10;13.37;;;3.40;99.90;;;;;;5054125;28;20179;-69
2023/12/14 08:28:42;;;;;;;20.10;14.07;;;3.40;99.90;;;;;;5046423;28;20179;-63
2023/12/14 08:31:09;;;;;;;22.60;13.60;;;3.40;99.90;;;;;;5054031;28;20198;-67
2023/12/14 08:33:35;;;;;;;20.63;12.03;;;3.40;99.90;;;;;;5053731;28;20452;-63
2023/12/14 08:36:01;;;;;;;15.83;12.40;;;3.40;99.90;;;;;;5062151;28;20511;-63
2023/12/14 08:38:26;;;;;;;17.70;13.27;;;3.40;99.90;;;;;;5050326;28;20175;-62
2023/12/14 08:40:52;;;;;;;16.60;11.97;;;3.50;99.90;;;;;;5053500;28;20163;-64
2023/12/14 08:43:17;;;;;;;17.47;12.97;;;3.40;99.90;;;;;;5053283;28;20198;-63
2023/12/14 08:45:43;;;;;;;19.27;13.00;;;3.40;99.90;;;;;;5053326;28;20193;-63
2023/12/14 08:48:08;;;;;;;21.63;14.33;;;3.50;99.90;;;;;;5053145;28;20187;-64
2023/12/14 08:50:34;;;;;;;20.80;12.97;;;3.50;99.90;;;;;;5053484;28;20187;-64
2023/12/14 08:53:00;;;;;;;24.97;12.63;;;3.50;99.90;;;;;;5052779;28;20580;-64
2023/12/14 08:55:26;;;;;;;13.87;12.37;;;3.50;99.90;;;;;;5052919;28;20483;-64
2023/12/14 08:57:52;;;;;;;15.60;12.50;;;3.50;99.90;;;;;;5052683;28;20190;-63
2023/12/14 09:00:19;;;;;;;15.77;13.30;;;3.50;99.90;;;;;;5061070;28;20465;-68
2023/12/14 09:02:45;;;;;;;17.37;11.53;;;3.50;99.90;;;;;;5053402;28;20441;-67
2023/12/14 09:05:15;;;;;;;18.60;12.03;;;3.50;99.90;;;;;;5053108;28;20414;-66
2023/12/14 09:07:41;;;;;;;16.40;12.07;;;3.50;99.90;;;;;;5061111;28;20413;-64
2023/12/14 09:10:07;;;;;;;15.90;12.13;;;3.60;99.90;;;;;;5055079;28;20425;-63
2023/12/14 09:12:35;;;;;;;20.13;13.00;;;3.60;99.90;;;;;;5055994;28;20264;-64
2023/12/14 09:15:01;;;;;;;17.77;11.97;;;3.60;99.90;;;;;;5050064;28;20842;-63
2023/12/14 09:17:32;;;;;;;20.37;13.30;;;3.60;99.90;;;;;;5052549;28;20777;-64
2023/12/14 09:19:59;;;;;;;21.00;12.57;;;3.60;99.90;;;;;;5063792;28;20455;-63
2023/12/14 09:22:25;;;;;;;20.37;12.57;;;3.60;99.90;;;;;;5050332;28;21102;-63
2023/12/14 09:24:50;;;;;;;19.77;13.87;;;3.60;99.90;;;;;;5059559;28;20417;-64
2023/12/14 09:27:16;;;;;;;16.13;12.37;;;3.60;99.90;;;;;;5052190;28;20179;-64
2023/12/14 09:29:41;;;;;;;18.73;11.60;;;3.70;99.90;;;;;;5048903;28;20186;-63
2023/12/14 09:32:10;;;;;;;18.37;11.63;;;3.60;99.90;;;;;;5050205;28;20205;-64
2023/12/14 09:34:36;;;;;;;14.97;10.10;;;3.60;99.90;;;;;;5062609;28;20178;-64
2023/12/14 09:37:01;;;;;;;20.80;12.27;;;3.60;99.90;;;;;;5053367;28;20421;-64
2023/12/14 09:39:27;;;;;;;17.87;10.57;;;3.60;99.90;;;;;;5041780;28;20283;-62
2023/12/14 09:42:05;;;;;;;14.50;10.30;;;3.60;99.90;;;;;;5050890;28;20612;-63
2023/12/14 09:44:31;;;;;;;18.33;11.90;;;3.50;99.90;;;;;;5049628;28;20401;-63
2023/12/14 09:46:59;;;;;;;13.27;9.80;;;3.50;99.90;;;;;;5052514;28;20405;-63
2023/12/14 09:49:29;;;;;;;13.53;9.77;;;3.50;99.90;;;;;;5051527;28;20418;-64
2023/12/14 09:51:56;;;;;;;13.57;10.23;;;3.50;99.90;;;;;;5059841;28;20528;-64
2023/12/14 09:54:22;;;;;;;13.20;11.77;;;3.60;99.90;;;;;;5064139;28;20947;-62
2023/12/14 09:56:48;;;;;;;13.50;9.63;;;3.60;99.90;;;;;;5051638;28;20837;-64
2023/12/14 09:59:14;;;;;;;16.77;10.03;;;3.50;99.90;;;;;;5051654;28;20449;-64
2023/12/14 10:01:40;;;;;;;15.50;10.57;;;3.50;99.90;;;;;;5045308;28;20496;-65
2023/12/14 10:04:12;;;;;;;20.90;11.03;;;3.50;99.90;;;;;;5051459;28;20416;-64
2023/12/14 10:06:39;;;;;;;17.00;10.43;;;3.60;99.90;;;;;;5054593;28;20171;-64
2023/12/14 10:09:09;;;;;;;16.33;11.63;;;3.50;99.90;;;;;;5051582;28;20605;-64
2023/12/14 10:11:37;;;;;;;15.63;10.60;;;3.60;99.90;;;;;;5051174;28;20544;-62
2023/12/14 10:14:17;;;;;;;16.97;12.00;;;3.60;99.90;;;;;;5051469;28;20417;-64
2023/12/14 10:16:42;;;;;;;23.80;14.00;;;3.60;99.90;;;;;;5050130;28;20483;-64
2023/12/14 10:19:08;;;;;;;15.90;10.90;;;3.60;99.90;;;;;;5056899;28;20809;-64
2023/12/14 10:21:35;;;;;;;17.27;11.20;;;3.70;99.90;;;;;;5051216;28;20202;-62
2023/12/14 10:24:01;;;;;;;18.03;11.83;;;3.60;99.90;;;;;;5044090;28;20175;-61
2023/12/14 10:26:27;;;;;;;13.93;10.23;;;3.70;99.90;;;;;;5053348;28;20418;-63
2023/12/14 10:28:53;;;;;;;16.77;10.60;;;3.60;99.90;;;;;;5043197;28;20178;-63
2023/12/14 10:31:19;;;;;;;20.80;11.33;;;3.60;99.90;;;;;;5051073;28;20456;-60
2023/12/14 10:33:45;;;;;;;16.40;11.27;;;3.60;99.90;;;;;;5051050;28;20428;-65
2023/12/14 10:36:13;;;;;;;13.57;10.60;;;3.70;99.90;;;;;;5059011;28;20778;-63
2023/12/14 10:38:39;;;;;;;17.10;10.53;;;3.70;99.90;;;;;;5051874;28;20562;-63
2023/12/14 10:41:07;;;;;;;16.43;12.07;;;3.70;99.90;;;;;;5055251;28;20774;-63
2023/12/14 10:43:36;;;;;;;13.30;9.60;;;3.70;99.90;;;;;;5050225;28;20414;-63
2023/12/14 10:46:02;;;;;;;17.67;11.80;;;3.70;99.90;;;;;;5051014;28;20421;-64
2023/12/14 10:48:30;;;;;;;16.07;10.73;;;3.80;99.90;;;;;;5050931;28;20498;-64
2023/12/14 10:50:59;;;;;;;23.93;11.03;;;3.60;99.90;;;;;;5045139;28;20508;-63
2023/12/14 10:53:25;;;;;;;16.20;11.93;;;3.70;99.90;;;;;;5050803;28;20794;-62
2023/12/14 10:55:52;;;;;;;18.40;11.60;;;3.80;99.90;;;;;;5068707;28;20416;-63
2023/12/14 10:58:19;;;;;;;13.13;9.73;;;3.70;99.90;;;;;;5046370;28;20873;-63
2023/12/14 11:01:03;;;;;;;13.70;8.90;;;3.70;99.90;;;;;;5051299;28;20456;-64
2023/12/14 11:03:41;;;;;;;15.73;10.93;;;3.70;99.90;;;;;;5056425;28;20417;-63
2023/12/14 11:06:30;;;;;;;17.87;11.20;;;3.70;99.90;;;;;;5069253;28;20770;-63
2023/12/14 11:09:05;;;;;;;15.27;9.60;;;3.70;99.90;;;;;;5049751;28;20417;-63
2023/12/14 11:11:57;;;;;;;16.70;10.60;;;3.70;99.90;;;;;;5055803;28;20815;-64
2023/12/14 11:14:23;;;;;;;13.60;9.40;;;3.70;99.90;;;;;;5064669;28;20477;-64
2023/12/14 11:16:50;;;;;;;12.53;9.07;;;3.80;99.90;;;;;;5066916;28;20424;-64
2023/12/14 11:19:22;;;;;;;13.00;9.80;;;3.70;99.90;;;;;;5074981;28;20513;-64
2023/12/14 11:21:55;;;;;;;15.60;10.37;;;3.80;99.90;;;;;;5061375;28;20536;-64
2023/12/14 11:24:21;;;;;;;14.63;10.40;;;3.80;99.90;;;;;;5064016;28;20416;-64
2023/12/14 11:26:49;;;;;;;13.37;10.23;;;3.70;99.90;;;;;;5071891;28;20933;-63
2023/12/14 11:29:15;;;;;;;15.33;10.00;;;3.80;99.90;;;;;;5070154;28;20499;-63
2023/12/14 11:31:40;;;;;;;14.63;9.57;;;3.90;99.90;;;;;;5073543;28;21034;-64
2023/12/14 11:34:07;;;;;;;14.83;9.10;;;3.90;99.90;;;;;;5056699;28;20408;-63
2023/12/14 11:36:33;;;;;;;15.17;10.40;;;3.90;99.90;;;;;;5062989;28;20329;-64
2023/12/14 11:38:58;;;;;;;11.50;9.47;;;3.90;99.90;;;;;;5054406;28;20460;-62
2023/12/14 11:41:25;;;;;;;11.00;8.07;;;3.80;99.90;;;;;;5068595;28;20432;-63
2023/12/14 11:43:51;;;;;;;13.90;10.50;;;3.80;99.90;;;;;;5056737;28;20186;-63
2023/12/14 11:46:17;;;;;;;12.80;9.70;;;3.80;99.90;;;;;;5063577;28;20413;-63
2023/12/14 11:48:47;;;;;;;10.30;8.17;;;3.80;99.90;;;;;;5055112;28;20425;-64
2023/12/14 11:51:13;;;;;;;14.33;9.60;;;3.90;99.90;;;;;;5058599;28;20523;-63
2023/12/14 11:53:38;;;;;;;12.53;9.53;;;3.80;99.90;;;;;;5068163;28;21049;-64
2023/12/14 11:56:05;;;;;;;11.03;8.73;;;3.80;99.90;;;;;;5059020;28;20193;-64
2023/12/14 11:58:34;;;;;;;10.80;9.30;;;3.90;99.90;;;;;;5070830;28;20174;-64
2023/12/14 12:01:17;;;;;;;14.10;10.00;;;3.90;99.90;;;;;;5069491;28;20408;-63
2023/12/14 12:03:43;;;;;;;12.67;9.53;;;3.90;99.90;;;;;;5062310;28;20423;-66
2023/12/14 12:06:23;;;;;;;11.27;9.10;;;3.90;99.90;;;;;;5066728;28;20413;-66
2023/12/14 12:08:49;;;;;;;12.73;9.00;;;3.90;99.90;;;;;;5069091;28;20417;-63
2023/12/14 12:11:20;;;;;;;12.30;8.07;;;3.90;99.90;;;;;;5066223;28;20782;-67
2023/12/14 12:13:54;;;;;;;18.23;8.27;;;3.90;99.90;;;;;;5061052;28;20413;-67
2023/12/14 12:16:20;;;;;;;11.67;8.37;;;3.90;99.90;;;;;;5056932;28;20432;-68
2023/12/14 12:18:45;;;;;;;11.80;8.07;;;4.00;99.90;;;;;;5063990;28;20664;-68
2023/12/14 12:21:12;;;;;;;13.83;8.60;;;4.00;99.90;;;;;;5056837;28;20468;-67
2023/12/14 12:23:38;;;;;;;9.40;8.20;;;4.00;99.90;;;;;;5057535;28;20176;-65
2023/12/14 12:26:04;;;;;;;9.87;8.77;;;4.00;99.90;;;;;;5038964;28;20406;-63
2023/12/14 12:28:30;;;;;;;10.53;7.77;;;4.00;99.90;;;;;;5043340;28;20471;-63
2023/12/14 12:30:57;;;;;;;12.73;8.17;;;4.00;99.90;;;;;;5046050;28;20400;-63
2023/12/14 12:33:23;;;;;;;12.00;9.43;;;4.00;99.90;;;;;;5044769;28;20405;-64
2023/12/14 12:35:49;;;;;;;11.93;8.80;;;4.10;99.90;;;;;;5045387;28;20485;-63